Terminal Aerodrome Forecast
Issued by NWS Jackson, KY

Home | Current Version | Previous Version | Text Only | Print | Product List | Glossary On
Versions: 1 2 3 4 5 6 7 8 9 10 11 12 13 14 15 16 17 18 19
428
FTUS43 KJKL 272346
TAFJKL
TAF
KJKL 272346Z 2800/2824 VRB03KT P6SM VCTS BKN050CB
     FM280030 24015G30KT 2SM +TSRA BKN025CB OVC050
     FM280100 VRB03KT 3SM RA VCTS BKN025CB OVC050
     FM280400 17006KT 6SM -SHRA BR VCTS SCT045CB BKN080
     FM280600 21006KT 3SM -SHRA BR SCT015 OVC025
     FM281200 VRB06KT P6SM -SHRA SCT003 OVC015
     FM281400 25005KT P6SM SCT008 BKN010=

USA.gov is the U.S. government's official web portal to all federal, state and local government web resources and services.